Time;durP1;ratioP1;P1;durP2;ratioP2;P2;SDS_P1;SDS_P2;PMS_P1;PMS_P2;Temp;Humidity;BMP_temperature;BMP_pressure;BME280_temperature;BME280_humidity;BME280_pressure;Samples;Min_cycle;Max_cycle;Signal;HPM_P1;HPM_P2
2021/01/15 00:02:19;;;;;;;3.70;1.70;;;6.00;75.60;;;;;;5095789;28;20020;-78
2021/01/15 00:04:44;;;;;;;3.08;2.20;;;6.10;75.30;;;;;;5114270;28;20024;-78
2021/01/15 00:07:10;;;;;;;2.25;1.90;;;6.00;75.70;;;;;;5095557;28;20512;-78
2021/01/15 00:09:36;;;;;;;3.78;1.92;;;6.00;75.80;;;;;;5114029;28;20038;-78
2021/01/15 00:12:01;;;;;;;3.10;1.83;;;6.00;75.60;;;;;;5114037;28;20031;-78
2021/01/15 00:14:27;;;;;;;2.25;1.73;;;6.00;76.60;;;;;;5114110;28;20466;-78
2021/01/15 00:16:56;;;;;;;3.85;2.00;;;6.00;76.40;;;;;;5113898;28;20112;-78
2021/01/15 00:19:22;;;;;;;2.90;2.03;;;6.00;76.70;;;;;;5113855;28;20114;-78
2021/01/15 00:21:48;;;;;;;2.75;1.65;;;5.90;77.50;;;;;;5095703;28;20191;-78
2021/01/15 00:24:16;;;;;;;3.53;2.10;;;5.90;78.30;;;;;;5114018;28;20023;-78
2021/01/15 00:26:43;;;;;;;1.20;1.10;;;5.90;78.40;;;;;;5095433;28;20031;-78
2021/01/15 00:29:10;;;;;;;4.10;1.85;;;5.80;78.10;;;;;;5113682;28;20048;-78
2021/01/15 00:31:37;;;;;;;3.72;1.90;;;5.80;78.50;;;;;;5113740;28;20027;-78
2021/01/15 00:34:05;;;;;;;1.92;1.73;;;5.90;77.60;;;;;;5113807;28;20046;-79
2021/01/15 00:36:31;;;;;;;2.30;1.65;;;5.90;78.30;;;;;;5111220;27;20029;-78
2021/01/15 00:38:57;;;;;;;1.80;1.70;;;5.90;78.20;;;;;;5121835;27;20028;-78
2021/01/15 00:41:22;;;;;;;3.03;1.77;;;5.90;78.50;;;;;;5095425;28;20110;-79
2021/01/15 00:43:49;;;;;;;1.60;1.50;;;5.90;78.40;;;;;;5095098;28;20027;-78
2021/01/15 00:46:43;;;;;;;1.60;1.50;;;5.90;78.40;;;;;;5095410;28;20114;-78
2021/01/15 00:49:09;;;;;;;4.00;1.80;;;5.90;79.00;;;;;;5112516;28;20051;-78
2021/01/15 00:51:36;;;;;;;4.82;1.73;;;5.90;77.10;;;;;;5095091;28;20385;-78
2021/01/15 00:54:05;;;;;;;4.18;2.38;;;5.90;78.20;;;;;;5113359;28;20016;-78
2021/01/15 00:56:31;;;;;;;2.97;2.08;;;5.80;79.10;;;;;;5095127;28;20023;-78
2021/01/15 00:58:57;;;;;;;2.72;2.22;;;5.80;79.30;;;;;;5095166;28;20026;-78
2021/01/15 01:01:24;;;;;;;6.38;2.33;;;5.80;78.30;;;;;;5095269;28;20568;-78
2021/01/15 01:03:51;;;;;;;5.05;2.45;;;5.80;79.10;;;;;;5113422;28;20047;-78
2021/01/15 01:06:21;;;;;;;3.65;1.95;;;5.70;79.30;;;;;;5112954;28;20055;-79
2021/01/15 01:08:48;;;;;;;2.63;2.28;;;5.80;79.10;;;;;;5113283;28;20035;-78
2021/01/15 01:11:24;;;;;;;2.25;1.75;;;5.70;79.50;;;;;;5113366;28;20020;-78
2021/01/15 01:13:54;;;;;;;3.15;2.22;;;5.70;79.70;;;;;;5113301;28;20496;-78
2021/01/15 01:16:21;;;;;;;5.82;2.20;;;5.80;78.10;;;;;;5094772;28;20505;-78
2021/01/15 01:18:48;;;;;;;2.42;2.10;;;5.80;78.50;;;;;;5094670;28;20031;-78
2021/01/15 01:21:14;;;;;;;3.38;2.63;;;5.70;79.10;;;;;;5113312;28;20027;-78
2021/01/15 01:23:40;;;;;;;3.78;2.45;;;5.70;78.90;;;;;;5112974;28;20055;-78
2021/01/15 01:26:06;;;;;;;4.38;2.25;;;5.80;77.50;;;;;;5094757;28;20115;-78
2021/01/15 01:28:32;;;;;;;3.58;2.38;;;5.80;79.10;;;;;;5094698;28;20456;-78
2021/01/15 01:30:58;;;;;;;4.90;1.92;;;5.70;79.90;;;;;;5112886;28;20077;-78
2021/01/15 01:33:23;;;;;;;4.75;1.65;;;5.70;79.30;;;;;;5094762;28;20024;-78
2021/01/15 01:35:49;;;;;;;6.18;2.20;;;5.70;78.80;;;;;;5112776;28;20402;-78
2021/01/15 01:38:16;;;;;;;4.57;1.73;;;5.70;78.60;;;;;;5112875;28;20027;-78
2021/01/15 01:40:41;;;;;;;3.15;1.98;;;5.70;78.70;;;;;;5094770;28;20030;-78
2021/01/15 01:43:07;;;;;;;2.92;1.58;;;5.70;78.30;;;;;;5113039;28;20114;-78
2021/01/15 01:45:32;;;;;;;2.63;1.33;;;5.70;78.70;;;;;;5113063;28;20073;-78
2021/01/15 01:47:59;;;;;;;2.72;1.70;;;5.70;78.30;;;;;;5094593;28;20035;-78
2021/01/15 01:50:27;;;;;;;3.10;1.90;;;5.70;77.90;;;;;;5112766;28;20028;-78
2021/01/15 01:52:53;;;;;;;3.20;1.85;;;5.80;77.70;;;;;;5094485;28;20047;-78
2021/01/15 01:55:19;;;;;;;2.13;1.60;;;5.70;77.80;;;;;;5112843;28;20493;-79
2021/01/15 01:57:45;;;;;;;2.25;1.60;;;5.80;77.80;;;;;;5112865;28;20016;-78
2021/01/15 02:00:12;;;;;;;2.38;1.05;;;5.80;77.80;;;;;;5112911;28;20023;-78
2021/01/15 02:02:38;;;;;;;7.53;1.73;;;5.80;76.50;;;;;;5095949;28;20631;-79
2021/01/15 02:05:05;;;;;;;2.67;1.73;;;5.70;77.60;;;;;;5097934;28;20531;-78
2021/01/15 02:07:32;;;;;;;2.92;2.03;;;5.70;77.30;;;;;;5116631;28;20035;-78
2021/01/15 02:10:19;;;;;;;1.70;1.60;;;5.70;77.90;;;;;;5116263;28;20039;-78
2021/01/15 02:12:56;;;;;;;2.13;1.92;;;5.70;79.00;;;;;;5098117;28;20031;-78
2021/01/15 02:15:40;;;;;;;2.75;1.40;;;5.70;78.80;;;;;;5116561;28;20492;-78
2021/01/15 02:18:33;;;;;;;2.75;1.58;;;5.70;79.00;;;;;;5100597;28;20028;-78
2021/01/15 02:21:36;;;;;;;1.83;1.55;;;5.70;79.10;;;;;;5098075;28;20023;-78
2021/01/15 02:24:35;;;;;;;2.92;1.30;;;5.70;78.80;;;;;;5095989;28;20020;-78
2021/01/15 02:27:22;;;;;;;1.80;1.20;;;5.70;80.00;;;;;;5108637;28;20039;-78
2021/01/15 02:30:09;;;;;;;1.85;1.48;;;5.60;79.10;;;;;;5097667;28;20027;-78
2021/01/15 02:32:43;;;;;;;2.35;1.63;;;5.60;79.20;;;;;;5097393;28;20106;-78
2021/01/15 02:35:18;;;;;;;3.42;1.60;;;5.60;79.60;;;;;;5097646;28;20035;-78
2021/01/15 02:38:20;;;;;;;5.75;1.73;;;5.60;79.50;;;;;;5116002;28;20106;-78
2021/01/15 02:41:04;;;;;;;4.82;1.83;;;5.60;80.20;;;;;;5097767;28;20113;-78
2021/01/15 02:43:31;;;;;;;2.80;2.00;;;5.60;81.10;;;;;;5097377;28;20032;-79
2021/01/15 02:45:59;;;;;;;24.50;13.50;;;5.60;80.60;;;;;;5115649;28;20055;-78
2021/01/15 02:48:30;;;;;;;10.55;6.15;;;5.50;81.10;;;;;;5097384;28;20023;-78
2021/01/15 02:50:58;;;;;;;11.98;3.92;;;5.50;81.80;;;;;;5115432;28;20102;-78
2021/01/15 02:53:24;;;;;;;2.17;1.98;;;5.50;82.30;;;;;;5115513;28;20028;-78
2021/01/15 02:55:50;;;;;;;2.15;1.83;;;5.40;82.20;;;;;;5115435;28;20035;-78
2021/01/15 02:58:15;;;;;;;1.27;1.17;;;5.40;81.30;;;;;;5097102;28;20382;-78
2021/01/15 03:00:41;;;;;;;3.72;1.48;;;5.40;81.80;;;;;;5115552;28;20024;-78
2021/01/15 03:03:31;;;;;;;2.47;1.70;;;5.40;82.40;;;;;;5097140;28;20023;-78
2021/01/15 03:06:03;;;;;;;5.55;1.33;;;5.40;83.00;;;;;;5079404;28;21559;-78
2021/01/15 03:08:29;;;;;;;2.40;1.50;;;5.40;83.20;;;;;;5115342;28;20026;-78
2021/01/15 03:10:59;;;;;;;1.67;1.33;;;5.30;82.90;;;;;;5115440;28;20034;-79
2021/01/15 03:13:28;;;;;;;2.40;0.98;;;5.30;80.70;;;;;;5115204;28;20015;-78
2021/01/15 03:15:58;;;;;;;2.60;1.00;;;5.30;80.70;;;;;;5096809;28;20504;-78
2021/01/15 03:18:25;;;;;;;1.33;1.08;;;5.40;79.00;;;;;;5096917;28;20019;-78
2021/01/15 03:20:52;;;;;;;0.73;0.70;;;5.40;78.10;;;;;;5115189;28;20031;-79
2021/01/15 03:23:17;;;;;;;1.50;1.30;;;5.40;78.20;;;;;;5096884;28;20031;-78
2021/01/15 03:25:43;;;;;;;1.33;1.23;;;5.40;77.30;;;;;;5114908;28;20473;-78
2021/01/15 03:28:09;;;;;;;6.25;1.02;;;5.40;77.20;;;;;;5115028;28;20598;-78
2021/01/15 03:30:35;;;;;;;3.15;1.27;;;5.50;76.30;;;;;;5114825;28;20118;-78
2021/01/15 03:33:02;;;;;;;2.22;1.15;;;5.50;75.70;;;;;;5096661;28;20165;-78
2021/01/15 03:35:29;;;;;;;1.15;1.05;;;5.60;76.00;;;;;;5114816;28;20034;-78
2021/01/15 03:37:55;;;;;;;1.67;1.02;;;5.50;76.40;;;;;;5096550;28;20106;-79
2021/01/15 03:40:21;;;;;;;1.90;1.40;;;5.50;78.30;;;;;;5114731;28;20059;-78
2021/01/15 03:42:47;;;;;;;1.67;1.38;;;5.50;81.40;;;;;;5114824;28;20064;-78
2021/01/15 03:45:14;;;;;;;1.73;1.35;;;5.50;80.80;;;;;;5114726;28;20497;-78
2021/01/15 03:47:40;;;;;;;2.00;1.30;;;5.40;80.80;;;;;;5114528;28;20039;-78
2021/01/15 03:50:06;;;;;;;1.45;1.33;;;5.40;81.60;;;;;;5114596;28;20085;-78
2021/01/15 03:52:32;;;;;;;3.63;1.25;;;5.30;80.70;;;;;;5096361;28;20035;-78
2021/01/15 03:54:58;;;;;;;3.05;1.20;;;5.30;80.20;;;;;;5095875;28;20424;-78
2021/01/15 03:57:24;;;;;;;3.58;1.20;;;5.30;79.90;;;;;;5114401;28;20019;-78
2021/01/15 03:59:49;;;;;;;2.20;1.30;;;5.40;78.70;;;;;;5096129;28;20076;-78
2021/01/15 04:02:15;;;;;;;1.25;1.15;;;5.30;81.00;;;;;;5095893;28;20038;-78
2021/01/15 04:04:41;;;;;;;3.20;1.77;;;5.30;82.00;;;;;;5095572;28;20110;-78
2021/01/15 04:07:07;;;;;;;1.63;1.50;;;5.30;82.80;;;;;;5114077;28;20048;-79
2021/01/15 04:09:33;;;;;;;1.80;1.55;;;5.30;83.20;;;;;;5113889;28;20148;-78
2021/01/15 04:11:59;;;;;;;1.48;1.17;;;5.20;82.10;;;;;;5114295;28;20106;-78
2021/01/15 04:14:25;;;;;;;1.98;0.95;;;5.30;81.90;;;;;;5093931;28;20044;-78
2021/01/15 04:16:51;;;;;;;2.53;1.45;;;5.20;81.20;;;;;;5082559;28;20457;-78
2021/01/15 04:19:17;;;;;;;2.20;1.60;;;5.20;80.20;;;;;;5114097;28;20148;-78
2021/01/15 04:21:43;;;;;;;1.50;1.08;;;5.30;82.10;;;;;;5095754;28;20078;-78
2021/01/15 04:24:09;;;;;;;1.38;1.13;;;5.30;79.60;;;;;;5113835;28;20571;-78
2021/01/15 04:26:34;;;;;;;3.53;1.40;;;5.30;79.20;;;;;;5095031;28;20077;-78
2021/01/15 04:29:00;;;;;;;2.35;1.10;;;5.30;79.70;;;;;;5095437;28;20366;-78
2021/01/15 04:31:26;;;;;;;2.58;1.17;;;5.30;79.40;;;;;;5095707;28;20023;-78
2021/01/15 04:33:52;;;;;;;1.45;1.30;;;5.30;79.50;;;;;;5095700;28;20020;-78
2021/01/15 04:36:17;;;;;;;2.40;1.42;;;5.20;80.00;;;;;;5095468;28;20031;-78
2021/01/15 04:38:44;;;;;;;1.92;1.63;;;5.20;80.80;;;;;;5113596;28;20065;-78
2021/01/15 04:41:09;;;;;;;1.65;1.10;;;5.20;81.20;;;;;;5095479;28;20063;-78
2021/01/15 04:43:38;;;;;;;6.50;1.58;;;5.20;81.50;;;;;;5113677;28;20407;-79
2021/01/15 04:46:05;;;;;;;2.35;1.30;;;5.10;81.20;;;;;;5095199;28;20049;-79
2021/01/15 04:48:34;;;;;;;1.40;1.15;;;5.10;81.70;;;;;;5095377;28;20022;-79
2021/01/15 04:51:02;;;;;;;12.55;1.65;;;5.10;80.40;;;;;;5113673;28;20573;-78
2021/01/15 04:53:29;;;;;;;4.28;1.20;;;5.10;81.00;;;;;;5113511;28;20473;-78
2021/01/15 04:55:59;;;;;;;1.23;1.23;;;5.10;83.20;;;;;;5113419;28;20076;-79
2021/01/15 04:58:32;;;;;;;4.63;1.65;;;5.10;84.40;;;;;;5113299;28;20038;-78
2021/01/15 05:00:58;;;;;;;10.93;1.63;;;5.10;84.90;;;;;;5113415;28;20024;-78
2021/01/15 05:03:27;;;;;;;3.03;1.45;;;5.10;86.20;;;;;;5095171;28;20385;-78
2021/01/15 05:06:00;;;;;;;6.40;1.30;;;5.00;86.20;;;;;;5113082;28;20048;-78
2021/01/15 05:08:28;;;;;;;4.65;1.88;;;5.00;86.70;;;;;;5113277;28;20381;-78
2021/01/15 05:10:55;;;;;;;1.92;1.13;;;5.00;87.00;;;;;;5094987;28;20089;-78
2021/01/15 05:13:21;;;;;;;6.15;1.90;;;4.90;87.80;;;;;;5113334;28;20462;-78
2021/01/15 05:15:49;;;;;;;2.08;1.23;;;4.90;88.20;;;;;;5094770;28;20118;-78
2021/01/15 05:18:16;;;;;;;3.78;1.70;;;4.90;88.90;;;;;;5113289;28;20077;-79
2021/01/15 05:20:43;;;;;;;2.35;1.45;;;4.80;88.80;;;;;;5113312;28;20023;-78
2021/01/15 05:23:09;;;;;;;3.40;1.60;;;4.80;89.20;;;;;;5094853;28;20023;-78
2021/01/15 05:25:36;;;;;;;4.55;1.73;;;4.80;89.60;;;;;;5094900;28;20023;-79
2021/01/15 05:28:02;;;;;;;4.00;1.38;;;4.80;90.30;;;;;;5113203;28;20546;-79
2021/01/15 05:30:29;;;;;;;1.27;1.20;;;4.80;90.40;;;;;;5094770;28;20482;-78
2021/01/15 05:32:57;;;;;;;2.10;1.52;;;4.70;90.50;;;;;;5113090;28;20027;-78
2021/01/15 05:35:41;;;;;;;3.17;1.65;;;4.80;90.60;;;;;;5112980;28;20084;-78
2021/01/15 05:38:07;;;;;;;2.60;1.38;;;4.70;90.80;;;;;;5115406;28;20020;-78
2021/01/15 05:40:45;;;;;;;3.67;1.40;;;4.70;90.50;;;;;;5117141;28;20020;-79
2021/01/15 05:43:31;;;;;;;5.07;1.95;;;4.70;90.70;;;;;;5098752;28;20396;-79
2021/01/15 05:46:10;;;;;;;2.15;1.95;;;4.70;91.00;;;;;;5098035;28;20030;-78
2021/01/15 05:48:38;;;;;;;16.63;2.25;;;4.70;91.10;;;;;;5116571;28;20036;-79
2021/01/15 05:51:05;;;;;;;9.82;1.98;;;4.70;90.90;;;;;;5116848;28;20028;-78
2021/01/15 05:53:41;;;;;;;4.68;1.58;;;4.70;91.00;;;;;;5098296;28;20020;-79
2021/01/15 05:56:07;;;;;;;4.68;1.98;;;4.70;91.20;;;;;;5116738;28;20027;-79
2021/01/15 05:58:33;;;;;;;5.68;1.90;;;4.70;91.20;;;;;;5098499;28;20027;-78
2021/01/15 06:00:58;;;;;;;3.88;1.42;;;4.70;91.30;;;;;;5098338;28;20030;-79
2021/01/15 06:03:24;;;;;;;3.45;1.58;;;4.70;91.70;;;;;;5116339;28;20039;-78
2021/01/15 06:05:50;;;;;;;10.15;1.50;;;4.60;91.70;;;;;;5097921;28;20055;-79
2021/01/15 06:08:16;;;;;;;11.43;1.83;;;4.60;91.80;;;;;;5116556;28;20023;-79
2021/01/15 06:10:47;;;;;;;9.98;2.00;;;4.60;91.80;;;;;;5116453;28;20682;-79
2021/01/15 06:13:36;;;;;;;7.72;1.75;;;4.60;91.80;;;;;;5116380;28;20031;-79
2021/01/15 06:16:02;;;;;;;8.13;2.92;;;4.70;92.10;;;;;;5098105;28;20102;-79
2021/01/15 06:18:28;;;;;;;9.45;4.72;;;4.70;92.00;;;;;;5098068;28;20396;-79
2021/01/15 06:21:07;;;;;;;8.52;2.55;;;4.60;92.10;;;;;;5097966;28;20023;-78
2021/01/15 06:23:39;;;;;;;3.80;2.13;;;4.60;92.30;;;;;;5116228;28;20032;-78
2021/01/15 06:26:09;;;;;;;7.78;2.03;;;4.60;92.50;;;;;;5097258;28;20034;-78
2021/01/15 06:28:37;;;;;;;4.88;1.77;;;4.60;92.60;;;;;;5096821;28;20096;-78
2021/01/15 06:31:07;;;;;;;9.27;1.58;;;4.60;92.50;;;;;;5096770;28;20425;-78
2021/01/15 06:33:35;;;;;;;5.85;1.80;;;4.60;92.50;;;;;;5114916;28;20997;-78
2021/01/15 06:36:04;;;;;;;5.88;2.00;;;4.60;92.70;;;;;;5099688;28;20484;-79
2021/01/15 06:38:31;;;;;;;6.22;2.15;;;4.50;93.10;;;;;;5115055;28;20058;-78
2021/01/15 06:40:58;;;;;;;6.10;2.10;;;4.50;93.20;;;;;;5096619;28;20027;-78
2021/01/15 06:43:24;;;;;;;8.00;1.98;;;4.50;93.00;;;;;;5097194;28;20028;-78
2021/01/15 06:46:01;;;;;;;7.20;1.73;;;4.50;92.80;;;;;;5115296;28;20473;-78
2021/01/15 06:48:35;;;;;;;9.00;2.28;;;4.50;92.80;;;;;;5114945;28;20073;-78
2021/01/15 06:51:01;;;;;;;7.63;2.67;;;4.50;92.90;;;;;;5097231;28;20047;-78
2021/01/15 06:53:30;;;;;;;5.10;3.08;;;4.50;93.10;;;;;;5097510;28;20059;-78
2021/01/15 06:55:56;;;;;;;6.57;3.20;;;4.50;93.00;;;;;;5096820;28;20023;-78
2021/01/15 06:58:30;;;;;;;4.03;2.72;;;4.50;92.90;;;;;;5114738;28;20469;-78
2021/01/15 07:01:15;;;;;;;10.43;3.00;;;4.50;93.10;;;;;;5094251;28;20102;-78
2021/01/15 07:04:05;;;;;;;7.10;2.30;;;4.50;93.00;;;;;;5094352;28;20024;-79
2021/01/15 07:06:38;;;;;;;2.90;2.08;;;4.50;93.10;;;;;;5111112;28;20054;-78
2021/01/15 07:09:06;;;;;;;6.40;1.95;;;4.50;93.10;;;;;;5096326;28;20111;-78
2021/01/15 07:11:32;;;;;;;8.75;3.35;;;4.50;93.00;;;;;;5096355;28;20024;-79
2021/01/15 07:14:00;;;;;;;22.55;2.72;;;4.50;92.80;;;;;;5096348;28;20012;-78
2021/01/15 07:16:32;;;;;;;6.03;2.58;;;4.50;92.40;;;;;;5095695;28;20057;-78
2021/01/15 07:19:15;;;;;;;5.68;2.40;;;4.50;92.50;;;;;;5087509;28;20081;-78
2021/01/15 07:22:00;;;;;;;5.88;2.13;;;4.50;92.60;;;;;;5096028;28;20062;-78
2021/01/15 07:24:35;;;;;;;7.63;2.72;;;4.50;92.70;;;;;;5098161;28;20036;-78
2021/01/15 07:27:01;;;;;;;8.65;2.05;;;4.40;92.90;;;;;;5075832;28;20389;-78
2021/01/15 07:29:30;;;;;;;8.45;2.65;;;4.50;92.90;;;;;;5081422;28;20027;-78
2021/01/15 07:32:30;;;;;;;4.45;2.47;;;4.50;93.00;;;;;;5115064;28;20023;-79
2021/01/15 07:34:59;;;;;;;5.97;2.40;;;4.50;93.30;;;;;;5041915;28;20028;-78
2021/01/15 07:37:29;;;;;;;8.43;2.88;;;4.50;93.20;;;;;;5096667;28;20024;-78
2021/01/15 07:40:17;;;;;;;10.40;3.83;;;4.50;93.70;;;;;;5096280;28;20479;-78
2021/01/15 07:42:48;;;;;;;6.10;2.65;;;4.50;93.10;;;;;;5080484;28;20042;-78
2021/01/15 07:45:23;;;;;;;5.63;2.58;;;4.50;93.30;;;;;;5114645;28;20034;-78
2021/01/15 07:48:01;;;;;;;15.45;4.05;;;4.50;93.40;;;;;;5113573;28;20027;-78
2021/01/15 07:50:36;;;;;;;6.10;2.65;;;4.50;93.50;;;;;;5075418;28;20061;-78
2021/01/15 07:53:07;;;;;;;8.88;3.92;;;4.50;93.50;;;;;;5105273;28;20024;-79
2021/01/15 07:55:55;;;;;;;7.78;3.28;;;4.50;93.70;;;;;;5114482;28;20024;-79
2021/01/15 07:58:37;;;;;;;6.50;2.67;;;4.50;93.70;;;;;;5096052;28;20073;-79
2021/01/15 08:01:07;;;;;;;4.35;2.35;;;4.50;93.30;;;;;;5094899;28;20059;-79
2021/01/15 08:03:52;;;;;;;5.07;2.15;;;4.50;93.40;;;;;;5112195;28;20028;-79
2021/01/15 08:06:19;;;;;;;9.05;2.65;;;4.50;93.50;;;;;;5113046;28;20039;-79
2021/01/15 08:09:03;;;;;;;8.50;2.72;;;4.50;93.50;;;;;;5113372;28;20550;-79
2021/01/15 08:11:34;;;;;;;8.80;3.15;;;4.50;93.40;;;;;;5111426;28;20436;-79
2021/01/15 08:14:23;;;;;;;9.07;3.20;;;4.50;93.30;;;;;;5113840;28;20114;-79
2021/01/15 08:16:58;;;;;;;10.20;3.63;;;4.50;93.40;;;;;;5095565;28;20415;-78
2021/01/15 08:19:25;;;;;;;9.13;4.28;;;4.50;93.40;;;;;;5113910;28;20020;-79
2021/01/15 08:21:51;;;;;;;17.27;6.50;;;4.60;93.40;;;;;;5129700;27;20031;-79
2021/01/15 08:24:22;;;;;;;14.55;4.68;;;4.60;93.50;;;;;;5095731;28;20031;-78
2021/01/15 08:26:52;;;;;;;10.65;4.80;;;4.60;93.80;;;;;;5104046;27;20027;-78
2021/01/15 08:29:23;;;;;;;17.23;6.50;;;4.60;93.50;;;;;;5119316;27;20015;-79
2021/01/15 08:31:56;;;;;;;19.00;6.57;;;4.60;93.60;;;;;;5095356;28;20047;-78
2021/01/15 08:34:23;;;;;;;10.93;5.65;;;4.60;93.70;;;;;;5095476;28;20098;-79
2021/01/15 08:36:54;;;;;;;18.38;6.13;;;4.60;93.70;;;;;;5095379;28;20102;-78
2021/01/15 08:39:20;;;;;;;11.07;5.78;;;4.70;93.70;;;;;;5075314;28;20028;-77
2021/01/15 08:41:56;;;;;;;14.27;5.90;;;4.70;93.60;;;;;;5093476;28;20046;-77
2021/01/15 08:44:23;;;;;;;16.50;6.32;;;4.70;93.60;;;;;;5075191;28;20652;-77
2021/01/15 08:46:53;;;;;;;18.65;6.47;;;4.70;93.60;;;;;;5088100;28;20039;-77
2021/01/15 08:49:19;;;;;;;13.27;6.10;;;4.70;93.70;;;;;;5095210;28;20024;-79
2021/01/15 08:51:50;;;;;;;20.92;5.60;;;4.70;93.80;;;;;;5094736;28;20504;-77
2021/01/15 08:55:24;;;;;;;;;;;;;;;;;;;;;
2021/01/15 08:58:37;;;;;;;;;;;;;;;;;;;;;
2021/01/15 09:01:04;;;;;;;17.58;3.85;;;4.80;93.80;;;;;;5055084;28;20474;-78
2021/01/15 09:03:30;;;;;;;7.40;3.45;;;4.80;93.70;;;;;;5113306;28;20114;-77
2021/01/15 09:05:59;;;;;;;13.60;3.30;;;4.80;93.50;;;;;;5094723;28;20043;-77
2021/01/15 09:08:28;;;;;;;10.43;3.75;;;4.80;93.50;;;;;;5095064;28;20102;-78
2021/01/15 09:10:56;;;;;;;7.93;4.03;;;4.90;93.30;;;;;;5095370;28;20035;-79
2021/01/15 09:13:27;;;;;;;8.13;2.65;;;4.90;93.40;;;;;;5119712;28;20024;-79
2021/01/15 09:15:53;;;;;;;5.65;3.10;;;4.90;93.50;;;;;;5105367;27;20046;-80
2021/01/15 09:18:24;;;;;;;5.60;2.35;;;4.90;93.50;;;;;;5112365;27;20489;-79
2021/01/15 09:20:52;;;;;;;8.02;3.75;;;4.90;93.50;;;;;;5146051;27;20381;-77
2021/01/15 09:23:18;;;;;;;5.53;3.50;;;4.90;93.50;;;;;;5103659;27;20031;-77
2021/01/15 09:25:44;;;;;;;5.40;3.38;;;5.00;93.70;;;;;;5123830;27;20027;-77
2021/01/15 09:28:11;;;;;;;4.97;2.70;;;5.00;93.80;;;;;;5133786;27;20046;-78
2021/01/15 09:30:36;;;;;;;5.68;2.97;;;5.00;93.20;;;;;;5137176;27;20027;-77
2021/01/15 09:33:03;;;;;;;10.02;3.30;;;5.00;93.30;;;;;;5101653;28;20164;-77
2021/01/15 09:35:29;;;;;;;9.90;3.40;;;5.00;93.40;;;;;;5101786;28;20172;-77
2021/01/15 09:37:55;;;;;;;5.18;3.55;;;5.10;93.40;;;;;;5101677;28;20493;-77
2021/01/15 09:40:20;;;;;;;7.18;3.58;;;5.10;93.60;;;;;;5136843;27;20027;-77
2021/01/15 09:42:49;;;;;;;5.30;2.88;;;5.10;93.50;;;;;;5156524;27;20027;-77
2021/01/15 09:45:16;;;;;;;7.00;3.60;;;5.20;93.40;;;;;;5104062;28;20123;-77
2021/01/15 09:47:42;;;;;;;6.50;3.33;;;5.20;93.20;;;;;;5101565;28;20020;-78
2021/01/15 09:50:08;;;;;;;18.73;3.88;;;5.20;93.10;;;;;;5101495;28;20035;-77
2021/01/15 09:52:36;;;;;;;8.50;3.28;;;5.30;92.80;;;;;;5119574;28;20530;-77
2021/01/15 09:55:02;;;;;;;10.65;3.55;;;5.30;92.10;;;;;;5101413;28;20092;-79
2021/01/15 09:57:28;;;;;;;5.88;2.97;;;5.40;91.80;;;;;;5119395;28;20059;-79
2021/01/15 09:59:55;;;;;;;10.02;2.50;;;5.40;91.70;;;;;;5119622;28;20066;-78
2021/01/15 10:02:20;;;;;;;8.73;2.72;;;5.40;92.20;;;;;;5101481;28;20031;-79
2021/01/15 10:04:46;;;;;;;8.50;2.70;;;5.40;92.10;;;;;;5101428;28;20024;-79
2021/01/15 10:07:11;;;;;;;4.72;1.83;;;5.50;92.10;;;;;;5095911;28;20099;-82
2021/01/15 10:09:37;;;;;;;3.88;2.50;;;6.10;95.10;;;;;;5081449;28;20052;-77
2021/01/15 10:12:03;;;;;;;11.23;2.92;;;6.00;91.70;;;;;;5077162;28;20082;-76
2021/01/15 10:14:29;;;;;;;6.38;2.67;;;5.90;91.30;;;;;;5084954;28;20058;-75
2021/01/15 10:16:55;;;;;;;4.20;2.50;;;5.90;91.10;;;;;;5092539;28;20025;-76
2021/01/15 10:19:21;;;;;;;12.38;4.15;;;5.90;90.90;;;;;;5091562;28;20036;-76
2021/01/15 10:21:47;;;;;;;25.23;8.07;;;5.90;90.30;;;;;;5089298;28;20028;-76
2021/01/15 10:24:14;;;;;;;19.73;7.30;;;5.90;89.60;;;;;;5075273;28;20028;-77
2021/01/15 10:26:41;;;;;;;16.42;8.70;;;5.80;90.10;;;;;;5089026;28;20787;-76
2021/01/15 10:29:09;;;;;;;20.08;8.45;;;5.80;90.50;;;;;;5087394;28;20024;-77
2021/01/15 10:31:54;;;;;;;21.27;8.38;;;5.80;90.40;;;;;;5095975;28;20020;-76
2021/01/15 10:34:19;;;;;;;26.27;10.40;;;5.80;90.10;;;;;;5081416;28;20226;-76
2021/01/15 10:36:46;;;;;;;27.10;10.90;;;5.80;90.20;;;;;;5087819;28;20024;-76
2021/01/15 10:39:12;;;;;;;21.90;11.32;;;5.80;90.40;;;;;;5089059;28;20034;-76
2021/01/15 10:41:41;;;;;;;31.30;12.05;;;5.80;90.10;;;;;;5075882;28;20032;-78
2021/01/15 10:44:08;;;;;;;18.20;10.50;;;5.80;89.30;;;;;;5085496;28;20115;-78
2021/01/15 10:46:39;;;;;;;22.38;9.50;;;5.80;88.80;;;;;;5094346;28;20036;-78
2021/01/15 10:49:13;;;;;;;16.58;7.53;;;5.70;89.20;;;;;;5090507;28;20028;-79
2021/01/15 10:51:46;;;;;;;18.50;7.55;;;5.80;88.60;;;;;;5082901;28;20027;-78
2021/01/15 10:54:18;;;;;;;16.55;7.70;;;5.80;88.10;;;;;;5093136;28;20024;-78
2021/01/15 10:56:48;;;;;;;18.10;7.22;;;5.70;85.90;;;;;;5092800;28;20072;-78
2021/01/15 10:59:15;;;;;;;13.20;7.55;;;5.80;87.00;;;;;;5084498;28;20481;-79
2021/01/15 11:01:43;;;;;;;17.65;7.55;;;5.80;86.20;;;;;;5090497;28;20051;-78
2021/01/15 11:04:10;;;;;;;17.17;7.15;;;5.80;86.80;;;;;;5082383;28;20021;-78
2021/01/15 11:06:42;;;;;;;17.52;7.22;;;5.80;86.60;;;;;;5103394;28;20596;-78
2021/01/15 11:09:10;;;;;;;15.98;7.40;;;5.80;86.50;;;;;;5094690;28;20024;-78
2021/01/15 11:11:36;;;;;;;30.45;8.93;;;5.90;87.30;;;;;;5094832;28;20016;-78
2021/01/15 11:14:02;;;;;;;26.55;9.45;;;6.00;87.80;;;;;;5115117;27;20027;-79
2021/01/15 11:16:28;;;;;;;19.10;9.50;;;6.00;87.70;;;;;;5094169;28;20031;-79
2021/01/15 11:18:55;;;;;;;18.52;10.18;;;6.00;87.10;;;;;;5112367;28;20474;-79
2021/01/15 11:21:25;;;;;;;31.73;11.25;;;6.10;87.80;;;;;;5112193;28;20030;-79
2021/01/15 11:23:51;;;;;;;21.50;9.88;;;6.10;87.50;;;;;;5112696;28;20026;-78
2021/01/15 11:26:27;;;;;;;24.85;9.25;;;6.00;85.30;;;;;;5111808;28;20016;-78
2021/01/15 11:28:58;;;;;;;13.57;7.75;;;6.00;85.80;;;;;;5115673;27;20008;-79
2021/01/15 11:31:24;;;;;;;14.60;7.63;;;6.10;86.50;;;;;;5093014;28;20020;-79
2021/01/15 11:33:50;;;;;;;16.90;6.85;;;6.00;87.20;;;;;;5094661;28;20054;-79
2021/01/15 11:36:17;;;;;;;10.88;6.45;;;6.00;87.40;;;;;;5091536;28;20118;-78
2021/01/15 11:38:43;;;;;;;15.93;7.25;;;6.10;87.00;;;;;;5121394;27;20034;-79
2021/01/15 11:41:11;;;;;;;14.18;7.28;;;6.10;87.20;;;;;;5126476;27;20028;-79
2021/01/15 11:43:38;;;;;;;19.05;7.32;;;6.10;86.30;;;;;;5085995;28;20034;-79
2021/01/15 11:46:04;;;;;;;20.00;6.72;;;6.10;86.60;;;;;;5114715;28;20035;-79
2021/01/15 11:48:34;;;;;;;19.35;8.27;;;6.10;85.90;;;;;;5115459;27;20385;-79
2021/01/15 11:51:01;;;;;;;15.45;6.53;;;6.20;85.50;;;;;;5114680;28;20416;-78
2021/01/15 11:53:34;;;;;;;8.93;5.80;;;6.10;84.10;;;;;;5096387;28;20385;-78
2021/01/15 11:56:01;;;;;;;13.52;5.65;;;6.20;85.10;;;;;;5096286;28;20019;-78
2021/01/15 11:58:27;;;;;;;12.63;5.97;;;6.20;83.80;;;;;;5114471;28;20020;-79
2021/01/15 12:00:53;;;;;;;10.45;5.50;;;6.10;84.50;;;;;;5114579;28;20542;-78
2021/01/15 12:03:18;;;;;;;18.02;8.32;;;6.10;83.50;;;;;;5114329;28;20102;-80
2021/01/15 12:05:56;;;;;;;20.90;9.30;;;6.10;81.60;;;;;;5095995;28;20092;-79
2021/01/15 12:08:24;;;;;;;15.55;8.38;;;6.10;82.10;;;;;;5103759;27;20034;-78
2021/01/15 12:10:54;;;;;;;9.25;5.80;;;6.10;81.50;;;;;;5116290;27;20161;-78
2021/01/15 12:13:23;;;;;;;8.52;5.65;;;6.10;80.50;;;;;;5134724;27;20015;-78
2021/01/15 12:15:53;;;;;;;17.80;7.90;;;6.10;81.20;;;;;;5134744;27;20028;-78
2021/01/15 12:18:20;;;;;;;11.00;6.68;;;6.10;81.90;;;;;;5109811;28;20118;-78
2021/01/15 12:20:46;;;;;;;16.65;5.90;;;6.10;81.70;;;;;;5124791;27;20366;-78
2021/01/15 12:23:13;;;;;;;11.43;6.13;;;6.00;81.10;;;;;;5116110;27;20028;-78
2021/01/15 12:25:39;;;;;;;16.98;7.50;;;6.00;79.80;;;;;;5113979;28;20031;-78
2021/01/15 12:28:07;;;;;;;12.27;6.95;;;6.00;80.40;;;;;;5113853;28;20024;-78
2021/01/15 12:30:33;;;;;;;11.30;6.45;;;6.10;81.90;;;;;;5095379;28;20035;-78
2021/01/15 12:33:16;;;;;;;9.05;6.22;;;6.00;80.40;;;;;;5113473;28;20023;-78
2021/01/15 12:35:43;;;;;;;13.50;5.38;;;6.10;80.20;;;;;;5074946;28;20469;-79
2021/01/15 12:38:11;;;;;;;29.40;18.58;;;6.00;80.20;;;;;;5078640;28;20474;-79
2021/01/15 12:40:38;;;;;;;11.73;7.00;;;6.10;80.90;;;;;;5095021;28;20019;-79
2021/01/15 12:43:05;;;;;;;9.07;5.88;;;6.10;80.20;;;;;;5113088;28;20034;-79
2021/01/15 12:45:38;;;;;;;10.90;6.43;;;6.10;80.60;;;;;;5094879;28;20437;-79
2021/01/15 12:48:05;;;;;;;16.80;6.30;;;6.10;81.90;;;;;;5094753;28;20028;-78
2021/01/15 12:50:31;;;;;;;15.68;5.47;;;6.20;81.80;;;;;;5095255;28;20031;-79
2021/01/15 12:52:58;;;;;;;11.93;6.47;;;6.20;80.90;;;;;;5096110;27;20042;-79
2021/01/15 12:55:24;;;;;;;17.27;5.57;;;6.20;80.20;;;;;;5118510;27;20014;-79
2021/01/15 12:57:51;;;;;;;10.68;5.72;;;6.20;79.50;;;;;;5101964;28;20023;-79
2021/01/15 13:00:18;;;;;;;14.07;5.45;;;6.20;79.70;;;;;;5112955;28;20031;-79
2021/01/15 13:02:44;;;;;;;8.13;5.80;;;6.20;79.20;;;;;;5113334;28;20375;-79
2021/01/15 13:05:10;;;;;;;12.07;5.97;;;6.20;78.80;;;;;;5094536;28;20476;-79
2021/01/15 13:07:36;;;;;;;10.10;5.85;;;6.20;79.50;;;;;;5113466;28;20027;-79
2021/01/15 13:10:04;;;;;;;11.00;5.93;;;6.20;80.30;;;;;;5094983;28;20392;-78